Time;durP1;ratioP1;P1;durP2;ratioP2;P2;SDS_P1;SDS_P2;PMS_P1;PMS_P2;Temp;Humidity;BMP_temperature;BMP_pressure;BME280_temperature;BME280_humidity;BME280_pressure;Samples;Min_cycle;Max_cycle;Signal;HPM_P1;HPM_P2
2023/11/13 00:00:33;;;;;;;1.77;1.48;;;;;;;;;;2076229;28;20521;-77
2023/11/13 00:01:52;;;;;;;1.90;1.70;;;;;;;;;;2057283;28;20042;-77
2023/11/13 00:03:11;;;;;;;1.92;1.80;;;;;;;;;;2072729;28;20057;-77
2023/11/13 00:04:30;;;;;;;1.70;1.60;;;;;;;;;;2076733;28;20519;-77
2023/11/13 00:05:51;;;;;;;2.40;1.65;;;;;;;;;;2076021;28;20026;-78
2023/11/13 00:07:10;;;;;;;2.35;1.95;;;;;;;;;;2076902;28;20034;-77
2023/11/13 00:08:29;;;;;;;1.60;1.50;;;;;;;;;;2077771;28;20026;-77
2023/11/13 00:09:49;;;;;;;1.50;1.40;;;;;;;;;;2077013;28;20045;-77
2023/11/13 00:11:08;;;;;;;2.20;1.70;;;;;;;;;;2078190;28;20057;-77
2023/11/13 00:12:27;;;;;;;1.60;1.50;;;;;;;;;;2075853;28;20055;-77
2023/11/13 00:13:48;;;;;;;4.22;1.75;;;;;;;;;;2074234;28;20029;-77
2023/11/13 00:15:07;;;;;;;1.50;1.40;;;;;;;;;;2075030;28;20033;-77
2023/11/13 00:16:26;;;;;;;1.77;1.40;;;;;;;;;;2074445;28;20030;-78
2023/11/13 00:17:47;;;;;;;3.88;1.17;;;;;;;;;;2078407;28;20033;-78
2023/11/13 00:19:06;;;;;;;1.95;1.85;;;;;;;;;;2077495;28;20037;-77
2023/11/13 00:20:25;;;;;;;1.52;1.42;;;;;;;;;;2073240;28;20049;-77
2023/11/13 00:21:44;;;;;;;1.58;1.48;;;;;;;;;;2077760;28;20029;-77
2023/11/13 00:23:05;;;;;;;1.92;1.70;;;;;;;;;;2078758;28;20029;-77
2023/11/13 00:24:25;;;;;;;1.60;1.50;;;;;;;;;;2079201;28;20037;-77
2023/11/13 00:25:44;;;;;;;1.80;1.70;;;;;;;;;;2078000;28;20069;-77
2023/11/13 00:27:03;;;;;;;1.70;1.60;;;;;;;;;;2076274;28;20065;-76
2023/11/13 00:28:22;;;;;;;1.63;1.52;;;;;;;;;;2077885;28;20112;-77
2023/11/13 00:29:41;;;;;;;1.70;1.60;;;;;;;;;;2077828;28;20522;-77
2023/11/13 00:31:00;;;;;;;2.05;1.67;;;;;;;;;;2075822;28;20033;-76
2023/11/13 00:32:18;;;;;;;1.73;1.63;;;;;;;;;;2076372;28;20038;-76
2023/11/13 00:33:37;;;;;;;1.58;1.48;;;;;;;;;;2074305;28;20041;-77
2023/11/13 00:34:56;;;;;;;1.52;1.42;;;;;;;;;;2075970;28;20494;-75
2023/11/13 00:36:15;;;;;;;1.25;1.20;;;;;;;;;;2079592;28;20037;-78
2023/11/13 00:37:34;;;;;;;1.50;1.40;;;;;;;;;;2078785;28;20026;-76
2023/11/13 00:38:53;;;;;;;1.58;1.48;;;;;;;;;;2075370;28;20033;-76
2023/11/13 00:40:12;;;;;;;1.75;1.65;;;;;;;;;;2076297;28;20026;-77
2023/11/13 00:41:33;;;;;;;1.42;1.15;;;;;;;;;;2073806;28;20037;-76
2023/11/13 00:42:52;;;;;;;1.58;1.38;;;;;;;;;;2078674;28;20076;-76
2023/11/13 00:44:11;;;;;;;1.30;1.30;;;;;;;;;;2078278;28;20087;-77
2023/11/13 00:45:31;;;;;;;1.80;1.50;;;;;;;;;;2080101;28;20026;-76
2023/11/13 00:46:51;;;;;;;2.45;1.60;;;;;;;;;;2080629;28;20108;-77
2023/11/13 00:48:12;;;;;;;1.80;1.70;;;;;;;;;;2077834;28;20026;-77
2023/11/13 00:49:31;;;;;;;1.70;1.60;;;;;;;;;;2078825;28;20100;-77
2023/11/13 00:50:50;;;;;;;1.73;1.63;;;;;;;;;;2078519;28;20135;-77
2023/11/13 00:52:10;;;;;;;1.80;1.70;;;;;;;;;;2078702;28;20064;-78
2023/11/13 00:53:36;;;;;;;1.30;1.20;;;;;;;;;;2080586;28;20436;-77
2023/11/13 00:54:56;;;;;;;1.60;1.50;;;;;;;;;;2077673;28;20026;-77
2023/11/13 00:56:16;;;;;;;1.40;1.35;;;;;;;;;;2078534;28;20034;-77
2023/11/13 00:57:34;;;;;;;1.42;1.33;;;;;;;;;;2077372;28;20104;-78
2023/11/13 00:58:54;;;;;;;3.03;1.40;;;;;;;;;;2074202;28;20033;-77
2023/11/13 01:00:14;;;;;;;1.25;1.15;;;;;;;;;;2075155;28;20020;-77
2023/11/13 01:01:33;;;;;;;1.40;1.30;;;;;;;;;;2078832;28;20535;-76
2023/11/13 01:02:52;;;;;;;1.40;1.30;;;;;;;;;;2076498;28;20108;-77
2023/11/13 01:04:11;;;;;;;1.50;1.40;;;;;;;;;;2078871;28;20096;-77
2023/11/13 01:05:30;;;;;;;2.00;1.40;;;;;;;;;;2079570;28;20025;-77
2023/11/13 01:06:53;;;;;;;1.60;1.50;;;;;;;;;;2080316;28;20740;-77
2023/11/13 01:08:12;;;;;;;2.63;1.48;;;;;;;;;;2078337;28;20034;-77
2023/11/13 01:09:34;;;;;;;1.27;1.17;;;;;;;;;;2076682;28;20014;-77
2023/11/13 01:10:53;;;;;;;1.40;1.30;;;;;;;;;;2078117;28;20034;-78
2023/11/13 01:12:13;;;;;;;1.50;1.40;;;;;;;;;;2084774;28;20037;-78
2023/11/13 01:13:32;;;;;;;3.30;1.52;;;;;;;;;;2084235;28;20142;-76
2023/11/13 01:14:51;;;;;;;1.63;1.23;;;;;;;;;;2088083;28;20033;-79
2023/11/13 01:16:10;;;;;;;1.30;1.20;;;;;;;;;;2087976;28;20058;-78
2023/11/13 01:17:30;;;;;;;1.77;1.67;;;;;;;;;;2086152;28;20105;-78
2023/11/13 01:18:53;;;;;;;1.73;1.23;;;;;;;;;;2083690;28;20042;-76
2023/11/13 01:20:12;;;;;;;;;;;;;;;;;;2085463;28;20021;-77
2023/11/13 01:21:31;;;;;;;1.98;1.65;;;;;;;;;;2085229;28;19905;-77
2023/11/13 01:22:50;;;;;;;1.33;1.27;;;;;;;;;;2082309;28;20039;-76
2023/11/13 01:24:09;;;;;;;1.35;1.27;;;;;;;;;;2080581;28;20025;-79
2023/11/13 01:25:28;;;;;;;1.48;1.38;;;;;;;;;;2081561;28;20034;-76
2023/11/13 01:26:49;;;;;;;1.70;1.60;;;;;;;;;;2076847;28;20026;-76
2023/11/13 01:28:09;;;;;;;1.63;1.52;;;;;;;;;;2079293;28;20026;-77
2023/11/13 01:29:28;;;;;;;1.67;1.58;;;;;;;;;;2076459;28;20026;-77
2023/11/13 01:30:47;;;;;;;1.58;1.48;;;;;;;;;;2075912;28;20029;-77
2023/11/13 01:32:06;;;;;;;1.58;1.30;;;;;;;;;;2075776;28;20025;-76
2023/11/13 01:33:25;;;;;;;1.40;1.30;;;;;;;;;;2077047;28;20021;-77
2023/11/13 01:34:44;;;;;;;1.70;1.60;;;;;;;;;;2077207;28;20033;-76
2023/11/13 01:36:04;;;;;;;1.73;1.63;;;;;;;;;;2078666;28;20113;-76
2023/11/13 01:37:23;;;;;;;1.48;1.38;;;;;;;;;;2078115;28;20112;-76
2023/11/13 01:38:42;;;;;;;1.40;1.30;;;;;;;;;;2077561;28;20112;-77
2023/11/13 01:40:03;;;;;;;1.50;1.40;;;;;;;;;;2077559;28;20082;-75
2023/11/13 01:41:22;;;;;;;1.10;1.10;;;;;;;;;;2075104;28;20025;-76
2023/11/13 01:42:42;;;;;;;1.42;1.33;;;;;;;;;;2077307;28;20026;-76
2023/11/13 01:44:01;;;;;;;1.40;1.30;;;;;;;;;;2078159;28;20029;-78
2023/11/13 01:45:20;;;;;;;1.70;1.30;;;;;;;;;;2075603;28;20064;-77
2023/11/13 01:46:39;;;;;;;1.52;1.42;;;;;;;;;;2076464;28;20502;-77
2023/11/13 01:48:00;;;;;;;1.23;1.20;;;;;;;;;;2074026;28;20033;-76
2023/11/13 01:49:20;;;;;;;1.15;1.15;;;;;;;;;;2074263;28;20037;-76
2023/11/13 01:50:39;;;;;;;1.60;1.50;;;;;;;;;;2075998;28;20025;-77
2023/11/13 01:51:58;;;;;;;1.65;1.40;;;;;;;;;;2074723;28;20033;-76
2023/11/13 01:53:21;;;;;;;1.40;1.30;;;;;;;;;;2076921;28;20030;-76
2023/11/13 01:54:40;;;;;;;1.10;1.10;;;;;;;;;;2078444;28;20037;-77
2023/11/13 01:55:59;;;;;;;1.45;1.35;;;;;;;;;;2079994;28;20029;-76
2023/11/13 01:57:18;;;;;;;1.15;1.15;;;;;;;;;;2078823;28;20037;-77
2023/11/13 01:58:37;;;;;;;1.98;1.30;;;;;;;;;;2077380;28;20049;-77
2023/11/13 01:59:57;;;;;;;2.70;1.50;;;;;;;;;;2078167;28;20033;-76
2023/11/13 02:01:16;;;;;;;2.08;1.30;;;;;;;;;;2078548;28;20038;-77
2023/11/13 02:02:35;;;;;;;1.42;1.33;;;;;;;;;;2074989;28;20116;-77
2023/11/13 02:03:54;;;;;;;2.92;1.45;;;;;;;;;;2076719;28;20038;-76
2023/11/13 02:05:13;;;;;;;1.52;1.42;;;;;;;;;;2080647;28;20025;-76
2023/11/13 02:06:32;;;;;;;1.70;1.60;;;;;;;;;;2081198;28;20041;-77
2023/11/13 02:07:52;;;;;;;1.58;1.48;;;;;;;;;;2079553;28;20034;-78
2023/11/13 02:09:14;;;;;;;1.27;1.17;;;;;;;;;;2074798;28;20498;-77
2023/11/13 02:10:35;;;;;;;1.38;1.38;;;;;;;;;;2078118;28;20033;-77
2023/11/13 02:11:54;;;;;;;1.50;1.40;;;;;;;;;;2075192;28;20037;-77
2023/11/13 02:13:13;;;;;;;1.55;1.33;;;;;;;;;;2075355;28;20037;-77
2023/11/13 02:14:32;;;;;;;1.50;1.40;;;;;;;;;;2078409;28;20178;-77
2023/11/13 02:15:51;;;;;;;1.38;1.27;;;;;;;;;;2073914;28;20069;-76
2023/11/13 02:17:11;;;;;;;1.70;1.60;;;;;;;;;;2079612;28;20029;-77
2023/11/13 02:18:34;;;;;;;2.25;1.60;;;;;;;;;;2078966;28;20038;-78
2023/11/13 02:19:54;;;;;;;1.88;1.42;;;;;;;;;;2078424;28;20045;-76
2023/11/13 02:21:13;;;;;;;1.63;1.52;;;;;;;;;;2079508;28;20172;-76
2023/11/13 02:22:32;;;;;;;1.70;1.55;;;;;;;;;;2075420;28;20053;-76
2023/11/13 02:23:51;;;;;;;1.80;1.70;;;;;;;;;;2077411;28;20473;-76
2023/11/13 02:25:10;;;;;;;1.80;1.70;;;;;;;;;;2077433;28;20025;-77
2023/11/13 02:26:29;;;;;;;1.50;1.40;;;;;;;;;;2077099;28;20038;-76
2023/11/13 02:27:52;;;;;;;1.42;1.33;;;;;;;;;;2077732;28;20017;-76
2023/11/13 02:29:11;;;;;;;1.30;1.20;;;;;;;;;;2077266;28;20422;-76
2023/11/13 02:30:33;;;;;;;1.90;1.30;;;;;;;;;;2079407;28;20040;-77
2023/11/13 02:31:53;;;;;;;1.50;1.40;;;;;;;;;;2075927;28;20022;-75
2023/11/13 02:33:13;;;;;;;1.60;1.50;;;;;;;;;;2075332;28;20037;-76
2023/11/13 02:34:32;;;;;;;1.55;1.30;;;;;;;;;;2077673;28;20026;-75
2023/11/13 02:35:51;;;;;;;1.60;1.50;;;;;;;;;;2078013;28;20029;-75
2023/11/13 02:37:12;;;;;;;1.70;1.60;;;;;;;;;;2077974;28;20038;-76
2023/11/13 02:38:31;;;;;;;1.50;1.40;;;;;;;;;;2079365;28;20030;-75
2023/11/13 02:39:50;;;;;;;1.40;1.35;;;;;;;;;;2078798;28;20063;-74
2023/11/13 02:41:09;;;;;;;1.48;1.38;;;;;;;;;;2078247;28;20030;-76
2023/11/13 02:42:34;;;;;;;1.80;1.20;;;;;;;;;;2077611;28;20026;-74
2023/11/13 02:43:53;;;;;;;1.40;1.30;;;;;;;;;;2074290;28;20034;-76
2023/11/13 02:45:12;;;;;;;1.25;1.15;;;;;;;;;;2078273;28;20025;-76
2023/11/13 02:46:31;;;;;;;1.50;1.40;;;;;;;;;;2076666;28;20021;-76
2023/11/13 02:47:51;;;;;;;1.13;1.13;;;;;;;;;;2077049;28;20546;-76
2023/11/13 02:49:11;;;;;;;1.38;1.27;;;;;;;;;;2078046;28;20041;-76
2023/11/13 02:50:31;;;;;;;1.95;1.15;;;;;;;;;;2079180;28;20625;-75
2023/11/13 02:51:50;;;;;;;0.90;0.90;;;;;;;;;;2077821;28;20037;-76
2023/11/13 02:53:09;;;;;;;1.05;1.02;;;;;;;;;;2076432;28;20030;-76
2023/11/13 02:54:28;;;;;;;1.02;1.02;;;;;;;;;;2076820;28;20030;-76
2023/11/13 02:55:49;;;;;;;1.05;1.00;;;;;;;;;;2074996;28;20038;-75
2023/11/13 02:57:08;;;;;;;1.17;1.08;;;;;;;;;;2076363;28;20033;-76
2023/11/13 02:58:27;;;;;;;1.08;1.08;;;;;;;;;;2077908;28;20467;-76
2023/11/13 02:59:46;;;;;;;1.00;1.00;;;;;;;;;;2077720;28;20034;-75
2023/11/13 03:01:06;;;;;;;1.70;1.30;;;;;;;;;;2074329;28;20029;-76
2023/11/13 03:02:26;;;;;;;1.70;1.30;;;;;;;;;;2076828;28;20034;-75
2023/11/13 03:03:46;;;;;;;0.98;0.98;;;;;;;;;;2076828;28;20046;-74
2023/11/13 03:05:06;;;;;;;1.98;1.40;;;;;;;;;;2075558;28;20026;-75
2023/11/13 03:06:25;;;;;;;1.15;1.05;;;;;;;;;;2077029;28;20100;-75
2023/11/13 03:07:44;;;;;;;1.27;1.27;;;;;;;;;;2079318;28;20105;-75
2023/11/13 03:09:04;;;;;;;1.30;1.20;;;;;;;;;;2078690;28;20033;-76
2023/11/13 03:10:23;;;;;;;1.60;1.50;;;;;;;;;;2077800;28;20053;-75
2023/11/13 03:11:43;;;;;;;1.33;1.20;;;;;;;;;;2077297;28;20034;-75
2023/11/13 03:13:02;;;;;;;1.02;1.02;;;;;;;;;;2077432;28;20033;-75
2023/11/13 03:14:21;;;;;;;2.30;1.40;;;;;;;;;;2075718;28;20034;-75
2023/11/13 03:15:40;;;;;;;3.00;1.33;;;;;;;;;;2078467;28;20038;-76
2023/11/13 03:16:59;;;;;;;1.20;1.13;;;;;;;;;;2078219;28;20041;-74
2023/11/13 03:18:18;;;;;;;1.10;1.10;;;;;;;;;;2080358;28;20029;-75
2023/11/13 03:19:38;;;;;;;1.40;1.30;;;;;;;;;;2073463;28;20049;-75
2023/11/13 03:20:57;;;;;;;1.30;1.20;;;;;;;;;;2078053;28;20567;-75
2023/11/13 03:22:16;;;;;;;1.00;1.00;;;;;;;;;;2076640;28;20124;-75
2023/11/13 03:23:34;;;;;;;1.40;1.30;;;;;;;;;;2075740;28;20025;-75
2023/11/13 03:24:53;;;;;;;1.30;1.20;;;;;;;;;;2075995;28;20137;-76
2023/11/13 03:26:13;;;;;;;1.48;1.38;;;;;;;;;;2077928;28;20033;-75
2023/11/13 03:27:31;;;;;;;1.00;1.00;;;;;;;;;;2075919;28;20482;-76
2023/11/13 03:28:50;;;;;;;1.13;1.05;;;;;;;;;;2076652;28;20037;-78
2023/11/13 03:30:09;;;;;;;0.93;0.93;;;;;;;;;;2077073;28;20037;-76
2023/11/13 03:31:29;;;;;;;1.33;1.30;;;;;;;;;;2076232;28;20038;-76
2023/11/13 03:32:47;;;;;;;1.33;1.23;;;;;;;;;;2075166;28;20033;-77
2023/11/13 03:34:06;;;;;;;1.60;1.15;;;;;;;;;;2074725;28;20033;-76
2023/11/13 03:35:26;;;;;;;1.30;1.30;;;;;;;;;;2066450;28;20037;-78
2023/11/13 03:36:45;;;;;;;1.35;1.30;;;;;;;;;;2073145;28;20076;-76
2023/11/13 03:38:04;;;;;;;1.70;1.60;;;;;;;;;;2072268;28;21074;-76
2023/11/13 03:39:23;;;;;;;1.08;1.08;;;;;;;;;;2077574;28;20026;-78
2023/11/13 03:40:42;;;;;;;1.38;1.23;;;;;;;;;;2076038;28;20022;-75
2023/11/13 03:42:01;;;;;;;3.55;2.40;;;;;;;;;;2077375;28;20479;-75
2023/11/13 03:43:20;;;;;;;3.03;1.60;;;;;;;;;;2076908;28;20038;-76
2023/11/13 03:44:39;;;;;;;1.50;1.40;;;;;;;;;;2077855;28;20033;-76
2023/11/13 03:45:58;;;;;;;1.35;1.27;;;;;;;;;;2077968;28;20486;-75
2023/11/13 03:47:17;;;;;;;1.60;1.50;;;;;;;;;;2075797;28;20491;-76
2023/11/13 03:48:36;;;;;;;1.27;1.17;;;;;;;;;;2076341;28;20034;-75
2023/11/13 03:49:56;;;;;;;1.48;1.27;;;;;;;;;;2077231;28;20042;-78
2023/11/13 03:51:15;;;;;;;1.65;1.55;;;;;;;;;;2077922;28;20030;-75
2023/11/13 03:52:34;;;;;;;1.30;1.20;;;;;;;;;;2077377;28;20037;-78
2023/11/13 03:53:54;;;;;;;1.58;1.48;;;;;;;;;;2078853;28;20439;-75
2023/11/13 03:55:13;;;;;;;2.15;1.33;;;;;;;;;;2077591;28;20029;-76
2023/11/13 03:56:32;;;;;;;1.30;1.10;;;;;;;;;;2078816;28;20445;-77
2023/11/13 03:57:51;;;;;;;1.38;1.27;;;;;;;;;;2079984;28;20045;-76
2023/11/13 03:59:10;;;;;;;1.27;1.17;;;;;;;;;;2078512;28;20046;-76
2023/11/13 04:00:29;;;;;;;1.30;1.20;;;;;;;;;;2075965;28;20437;-76
2023/11/13 04:01:48;;;;;;;1.33;1.23;;;;;;;;;;2074585;28;20467;-76
2023/11/13 04:03:07;;;;;;;1.30;1.20;;;;;;;;;;2079640;28;20438;-76
2023/11/13 04:04:26;;;;;;;1.60;1.50;;;;;;;;;;2078707;28;20037;-76
2023/11/13 04:05:45;;;;;;;1.13;1.13;;;;;;;;;;2078649;28;20450;-76
2023/11/13 04:07:04;;;;;;;2.22;1.40;;;;;;;;;;2077866;28;20506;-75
2023/11/13 04:08:25;;;;;;;1.40;1.30;;;;;;;;;;2077505;28;20034;-74
2023/11/13 04:09:43;;;;;;;1.83;1.50;;;;;;;;;;2077177;28;20033;-75
2023/11/13 04:11:06;;;;;;;1.60;1.50;;;;;;;;;;2078775;28;20499;-75
2023/11/13 04:12:25;;;;;;;1.43;1.10;;;;;;;;;;2077398;28;20655;-76
2023/11/13 04:13:44;;;;;;;1.45;1.35;;;;;;;;;;2079974;28;20235;-75
2023/11/13 04:15:04;;;;;;;1.60;1.50;;;;;;;;;;2084757;28;20021;-75
2023/11/13 04:16:23;;;;;;;1.48;1.38;;;;;;;;;;2083999;28;20034;-75
2023/11/13 04:17:42;;;;;;;1.40;1.30;;;;;;;;;;2078857;28;20029;-74
2023/11/13 04:19:02;;;;;;;1.58;1.48;;;;;;;;;;2078493;28;20029;-75
2023/11/13 04:20:23;;;;;;;1.73;1.63;;;;;;;;;;2077267;28;20521;-75
2023/11/13 04:21:42;;;;;;;1.80;1.70;;;;;;;;;;2075891;28;20022;-76
2023/11/13 04:23:01;;;;;;;2.85;1.80;;;;;;;;;;2076420;28;20038;-75
2023/11/13 04:24:19;;;;;;;1.60;1.50;;;;;;;;;;2076416;28;20026;-75
2023/11/13 04:25:38;;;;;;;1.55;1.45;;;;;;;;;;2075866;28;20441;-73
2023/11/13 04:26:57;;;;;;;1.33;1.23;;;;;;;;;;2075739;28;20034;-75
2023/11/13 04:28:18;;;;;;;1.40;1.30;;;;;;;;;;2074255;28;20038;-75
2023/11/13 04:29:37;;;;;;;1.73;1.63;;;;;;;;;;2078936;28;20026;-75
2023/11/13 04:30:56;;;;;;;1.60;1.50;;;;;;;;;;2074842;28;20033;-75
2023/11/13 04:32:14;;;;;;;2.33;1.35;;;;;;;;;;2078132;28;20081;-75
2023/11/13 04:33:34;;;;;;;1.42;1.33;;;;;;;;;;2079326;28;20105;-75
2023/11/13 04:34:53;;;;;;;1.60;1.50;;;;;;;;;;2079938;28;20100;-75
2023/11/13 04:36:12;;;;;;;1.70;1.60;;;;;;;;;;2075647;28;20530;-75
2023/11/13 04:37:31;;;;;;;3.70;1.60;;;;;;;;;;2074956;28;20065;-76
2023/11/13 04:38:49;;;;;;;1.42;1.33;;;;;;;;;;2077693;28;20037;-75
2023/11/13 04:40:10;;;;;;;1.55;1.45;;;;;;;;;;2085742;28;20041;-75
2023/11/13 04:41:29;;;;;;;2.35;1.60;;;;;;;;;;2079500;28;20487;-75
2023/11/13 04:42:48;;;;;;;1.65;1.55;;;;;;;;;;2079434;28;20037;-75
2023/11/13 04:44:06;;;;;;;1.50;1.40;;;;;;;;;;2081010;28;20038;-77
2023/11/13 04:45:26;;;;;;;1.65;1.55;;;;;;;;;;2082213;28;20471;-75
2023/11/13 04:46:45;;;;;;;1.75;1.52;;;;;;;;;;2086807;28;20030;-75
2023/11/13 04:48:05;;;;;;;1.80;1.70;;;;;;;;;;2090056;28;20026;-78
2023/11/13 04:49:24;;;;;;;1.50;1.40;;;;;;;;;;2089146;28;20038;-78
2023/11/13 04:50:43;;;;;;;1.75;1.65;;;;;;;;;;2087853;28;20014;-77
2023/11/13 04:52:06;;;;;;;2.70;1.63;;;;;;;;;;2087363;28;20022;-78
2023/11/13 04:53:24;;;;;;;4.57;1.60;;;;;;;;;;2086992;28;20034;-76
2023/11/13 04:54:43;;;;;;;3.20;2.00;;;;;;;;;;2086493;28;20074;-75
2023/11/13 04:56:03;;;;;;;2.63;1.50;;;;;;;;;;2084825;28;20026;-75
2023/11/13 04:57:21;;;;;;;1.45;1.35;;;;;;;;;;2082184;28;20136;-78
2023/11/13 04:58:41;;;;;;;1.23;1.13;;;;;;;;;;2084399;28;20033;-76
2023/11/13 05:00:00;;;;;;;2.17;1.80;;;;;;;;;;2079359;28;20034;-75
2023/11/13 05:01:19;;;;;;;1.60;1.50;;;;;;;;;;2079435;28;20546;-75
2023/11/13 05:02:39;;;;;;;5.68;1.40;;;;;;;;;;2080107;28;20025;-75
2023/11/13 05:03:59;;;;;;;2.08;1.65;;;;;;;;;;2075794;28;20026;-75
2023/11/13 05:05:18;;;;;;;1.40;1.30;;;;;;;;;;2078490;28;20041;-75
2023/11/13 05:06:38;;;;;;;2.13;1.50;;;;;;;;;;2078059;28;20029;-75
2023/11/13 05:07:57;;;;;;;6.13;1.30;;;;;;;;;;2073386;28;20022;-76
2023/11/13 05:09:18;;;;;;;10.57;2.35;;;;;;;;;;2078021;28;20112;-75
2023/11/13 05:10:37;;;;;;;1.63;1.52;;;;;;;;;;2078216;28;20037;-75
2023/11/13 05:11:57;;;;;;;1.70;1.60;;;;;;;;;;2076359;28;20045;-75
2023/11/13 05:13:16;;;;;;;3.17;1.33;;;;;;;;;;2079459;28;20042;-78
2023/11/13 05:14:38;;;;;;;2.25;1.20;;;;;;;;;;2078851;28;20038;-76
2023/11/13 05:15:57;;;;;;;2.75;1.48;;;;;;;;;;2074090;28;20026;-77
2023/11/13 05:17:15;;;;;;;2.38;1.70;;;;;;;;;;2077407;28;20037;-75
2023/11/13 05:18:35;;;;;;;3.28;1.73;;;;;;;;;;2079681;28;20038;-75
2023/11/13 05:19:54;;;;;;;1.75;1.63;;;;;;;;;;2077886;28;20017;-75
2023/11/13 05:21:14;;;;;;;2.33;1.48;;;;;;;;;;2078880;28;20025;-75
2023/11/13 05:22:33;;;;;;;2.15;1.80;;;;;;;;;;2078047;28;20034;-75
2023/11/13 05:23:52;;;;;;;1.70;1.60;;;;;;;;;;2073143;28;20044;-75
2023/11/13 05:25:11;;;;;;;2.22;1.67;;;;;;;;;;2075847;28;20014;-75
2023/11/13 05:26:30;;;;;;;1.80;1.70;;;;;;;;;;2075734;28;20029;-76
2023/11/13 05:27:49;;;;;;;1.83;1.55;;;;;;;;;;2078769;28;20033;-75
2023/11/13 05:29:08;;;;;;;1.23;1.13;;;;;;;;;;2080432;28;20030;-77
2023/11/13 05:30:26;;;;;;;1.25;1.23;;;;;;;;;;2076718;28;20440;-76
2023/11/13 05:31:45;;;;;;;1.08;1.08;;;;;;;;;;2074485;28;20688;-76
2023/11/13 05:33:04;;;;;;;1.70;1.38;;;;;;;;;;2075505;28;20052;-76
2023/11/13 05:34:24;;;;;;;4.85;1.80;;;;;;;;;;2076252;28;20029;-76
2023/11/13 05:35:43;;;;;;;2.38;1.20;;;;;;;;;;2079042;28;20057;-77
2023/11/13 05:37:03;;;;;;;1.85;1.40;;;;;;;;;;2075243;28;20033;-76
2023/11/13 05:38:22;;;;;;;2.67;1.15;;;;;;;;;;2075238;28;20037;-75
2023/11/13 05:39:41;;;;;;;7.15;1.40;;;;;;;;;;2076449;28;20026;-74
2023/11/13 05:41:01;;;;;;;1.38;1.20;;;;;;;;;;2075297;28;20046;-78
2023/11/13 05:42:23;;;;;;;1.50;1.40;;;;;;;;;;2077910;28;20425;-76
2023/11/13 05:43:42;;;;;;;2.08;1.38;;;;;;;;;;2077715;28;20045;-76
2023/11/13 05:45:01;;;;;;;1.33;1.23;;;;;;;;;;2075404;28;20029;-77
2023/11/13 05:46:20;;;;;;;1.40;1.30;;;;;;;;;;2073623;28;20034;-76
2023/11/13 05:47:39;;;;;;;1.50;1.40;;;;;;;;;;2076077;28;20021;-76
2023/11/13 05:48:59;;;;;;;3.60;1.20;;;;;;;;;;2076183;28;20600;-76
2023/11/13 05:50:17;;;;;;;1.40;1.30;;;;;;;;;;2074176;28;20041;-76
2023/11/13 05:51:36;;;;;;;5.32;1.27;;;;;;;;;;2076662;28;20030;-76
2023/11/13 05:52:55;;;;;;;2.03;1.27;;;;;;;;;;2076029;28;20041;-77
2023/11/13 05:54:14;;;;;;;1.40;1.30;;;;;;;;;;2076580;28;20402;-76
2023/11/13 05:55:36;;;;;;;3.33;1.48;;;;;;;;;;2075398;28;20076;-76
2023/11/13 05:56:55;;;;;;;5.22;1.85;;;;;;;;;;2074069;28;20029;-77
2023/11/13 05:58:14;;;;;;;3.47;1.70;;;;;;;;;;2077863;28;20033;-78
2023/11/13 05:59:33;;;;;;;1.50;1.40;;;;;;;;;;2075260;28;20041;-78
2023/11/13 06:00:52;;;;;;;3.30;1.67;;;;;;;;;;2078669;28;20022;-78
2023/11/13 06:02:11;;;;;;;1.60;1.50;;;;;;;;;;2075772;28;20025;-78
2023/11/13 06:03:31;;;;;;;2.15;1.35;;;;;;;;;;2077047;28;20053;-78
2023/11/13 06:04:50;;;;;;;2.83;1.42;;;;;;;;;;2075701;28;20034;-77
2023/11/13 06:06:12;;;;;;;1.83;1.73;;;;;;;;;;2072545;28;20025;-78
2023/11/13 06:07:31;;;;;;;1.58;1.10;;;;;;;;;;2074890;28;20045;-75
2023/11/13 06:08:50;;;;;;;3.55;1.60;;;;;;;;;;2079372;28;20033;-76
2023/11/13 06:10:10;;;;;;;3.28;1.65;;;;;;;;;;2075658;28;20033;-77
2023/11/13 06:11:29;;;;;;;3.33;1.45;;;;;;;;;;2075186;28;20026;-77
2023/11/13 06:12:48;;;;;;;1.50;1.40;;;;;;;;;;2075969;28;20034;-77
2023/11/13 06:14:07;;;;;;;2.65;1.52;;;;;;;;;;2076673;28;20501;-77
2023/11/13 06:15:27;;;;;;;4.32;1.30;;;;;;;;;;2075706;28;20108;-77
2023/11/13 06:16:46;;;;;;;3.65;1.20;;;;;;;;;;2077519;28;20029;-81
2023/11/13 06:18:06;;;;;;;8.27;1.58;;;;;;;;;;2072376;28;20041;-77
2023/11/13 06:19:24;;;;;;;2.88;1.35;;;;;;;;;;2074285;28;20049;-77
2023/11/13 06:20:44;;;;;;;13.38;1.73;;;;;;;;;;2076759;28;20053;-77
2023/11/13 06:22:04;;;;;;;4.00;1.25;;;;;;;;;;2074918;28;20026;-77
2023/11/13 06:23:23;;;;;;;1.30;1.20;;;;;;;;;;2073188;28;20030;-77
2023/11/13 06:24:42;;;;;;;1.67;1.45;;;;;;;;;;2076195;28;20030;-76
2023/11/13 06:26:04;;;;;;;3.97;1.60;;;;;;;;;;2076351;28;21063;-78
2023/11/13 06:27:23;;;;;;;3.83;1.20;;;;;;;;;;2066452;28;20014;-78
2023/11/13 06:28:43;;;;;;;2.97;1.20;;;;;;;;;;2069311;28;20474;-76
2023/11/13 06:30:03;;;;;;;1.75;1.30;;;;;;;;;;2071098;28;20037;-77
2023/11/13 06:31:22;;;;;;;8.73;1.08;;;;;;;;;;2071216;28;20037;-76
2023/11/13 06:32:41;;;;;;;1.23;1.13;;;;;;;;;;2075488;28;20085;-76
2023/11/13 06:34:00;;;;;;;2.00;1.10;;;;;;;;;;2074655;28;20104;-75
2023/11/13 06:35:19;;;;;;;1.73;1.40;;;;;;;;;;2075234;28;20057;-76
2023/11/13 06:36:42;;;;;;;4.97;1.33;;;;;;;;;;2075883;28;20033;-76
2023/11/13 06:38:04;;;;;;;1.85;1.23;;;;;;;;;;2075877;28;20026;-77
2023/11/13 06:39:23;;;;;;;1.77;1.67;;;;;;;;;;2072319;28;20076;-77
2023/11/13 06:40:43;;;;;;;4.05;1.33;;;;;;;;;;2072391;28;20255;-77
2023/11/13 06:42:02;;;;;;;1.67;1.20;;;;;;;;;;2075189;28;20033;-78
2023/11/13 06:43:24;;;;;;;1.67;1.30;;;;;;;;;;2078320;28;20033;-78
2023/11/13 06:44:43;;;;;;;2.22;1.38;;;;;;;;;;2077002;28;20037;-79
2023/11/13 06:46:04;;;;;;;8.60;1.73;;;;;;;;;;2074394;28;20550;-78
2023/11/13 06:47:23;;;;;;;1.17;1.08;;;;;;;;;;2074631;28;20811;-78
2023/11/13 06:48:45;;;;;;;1.80;1.25;;;;;;;;;;2077455;28;20029;-79
2023/11/13 06:50:05;;;;;;;4.57;1.27;;;;;;;;;;2074093;28;20033;-78
2023/11/13 06:51:24;;;;;;;2.35;1.35;;;;;;;;;;2081869;28;20038;-78
2023/11/13 06:52:42;;;;;;;2.05;1.40;;;;;;;;;;2077083;28;20076;-78
2023/11/13 06:54:02;;;;;;;7.75;1.58;;;;;;;;;;2074380;28;20034;-78
2023/11/13 06:55:21;;;;;;;4.22;1.20;;;;;;;;;;2077382;28;20033;-78
2023/11/13 06:56:40;;;;;;;5.50;1.70;;;;;;;;;;2078057;28;20033;-78
2023/11/13 06:58:00;;;;;;;3.90;1.00;;;;;;;;;;2075962;28;20057;-78
2023/11/13 06:59:19;;;;;;;2.67;1.20;;;;;;;;;;2078068;28;20080;-78
2023/11/13 07:00:38;;;;;;;2.75;1.33;;;;;;;;;;2078122;28;20049;-78
2023/11/13 07:01:57;;;;;;;3.65;1.48;;;;;;;;;;2077788;28;20117;-77
2023/11/13 07:03:17;;;;;;;3.58;1.52;;;;;;;;;;2079154;28;20108;-78
2023/11/13 07:04:37;;;;;;;1.08;0.98;;;;;;;;;;2079322;28;20025;-78
2023/11/13 07:05:56;;;;;;;2.08;1.55;;;;;;;;;;2078151;28;20037;-78
2023/11/13 07:07:15;;;;;;;1.30;1.20;;;;;;;;;;2074107;28;20458;-78
2023/11/13 07:08:34;;;;;;;5.25;1.42;;;;;;;;;;2077756;28;20029;-79
2023/11/13 07:09:53;;;;;;;8.98;1.55;;;;;;;;;;2079913;28;20030;-77
2023/11/13 07:11:14;;;;;;;3.45;1.42;;;;;;;;;;2073495;28;20025;-78
2023/11/13 07:12:34;;;;;;;6.88;1.60;;;;;;;;;;2078890;28;20467;-78
2023/11/13 07:13:53;;;;;;;5.22;1.40;;;;;;;;;;2078776;28;20061;-78
2023/11/13 07:15:13;;;;;;;1.10;0.95;;;;;;;;;;2075305;28;20062;-78
2023/11/13 07:16:33;;;;;;;3.70;1.40;;;;;;;;;;2078475;28;20566;-78
2023/11/13 07:17:52;;;;;;;3.83;1.45;;;;;;;;;;2079116;28;20034;-78
2023/11/13 07:19:13;;;;;;;2.38;1.40;;;;;;;;;;2077379;28;20116;-78
2023/11/13 07:20:32;;;;;;;1.27;1.17;;;;;;;;;;2077575;28;20022;-78
2023/11/13 07:21:51;;;;;;;11.00;1.90;;;;;;;;;;2077000;28;20435;-77
2023/11/13 07:23:16;;;;;;;3.45;1.63;;;;;;;;;;2075963;28;20457;-78
2023/11/13 07:24:37;;;;;;;1.80;1.25;;;;;;;;;;2076026;28;20037;-77
2023/11/13 07:25:56;;;;;;;2.97;1.30;;;;;;;;;;2077530;28;20043;-79
2023/11/13 07:27:15;;;;;;;1.30;1.20;;;;;;;;;;2075133;28;20072;-78
2023/11/13 07:28:36;;;;;;;2.45;1.48;;;;;;;;;;2078273;28;20077;-78
2023/11/13 07:29:56;;;;;;;3.10;1.35;;;;;;;;;;2078649;28;20030;-77
2023/11/13 07:31:19;;;;;;;4.47;2.08;;;;;;;;;;2077073;28;20030;-77
2023/11/13 07:32:38;;;;;;;2.15;1.33;;;;;;;;;;2074339;28;20101;-77
2023/11/13 07:33:57;;;;;;;4.78;1.40;;;;;;;;;;2072716;28;20108;-77
2023/11/13 07:35:16;;;;;;;7.43;1.50;;;;;;;;;;2076872;28;20186;-77
2023/11/13 07:36:35;;;;;;;4.65;1.35;;;;;;;;;;2077314;28;20025;-76
2023/11/13 07:37:54;;;;;;;3.25;1.38;;;;;;;;;;2076875;28;20061;-77
2023/11/13 07:39:15;;;;;;;7.30;2.00;;;;;;;;;;2075537;28;20038;-78
2023/11/13 07:40:35;;;;;;;4.05;1.70;;;;;;;;;;2074707;28;20034;-78
2023/11/13 07:41:58;;;;;;;4.32;1.35;;;;;;;;;;2073197;28;20037;-76
2023/11/13 07:43:16;;;;;;;6.95;1.52;;;;;;;;;;2076358;28;20037;-77
2023/11/13 07:44:36;;;;;;;1.48;1.25;;;;;;;;;;2077076;28;20026;-77
2023/11/13 07:45:55;;;;;;;1.42;1.10;;;;;;;;;;2075072;28;20033;-77
2023/11/13 07:47:15;;;;;;;1.00;0.90;;;;;;;;;;2074649;28;20030;-77
2023/11/13 07:48:35;;;;;;;3.10;1.23;;;;;;;;;;2077328;28;20025;-77
2023/11/13 07:49:57;;;;;;;2.47;1.55;;;;;;;;;;2079538;28;20029;-76
2023/11/13 07:51:17;;;;;;;4.60;1.58;;;;;;;;;;2077053;28;20099;-77
2023/11/13 07:52:36;;;;;;;5.15;1.40;;;;;;;;;;2073255;28;20033;-77
2023/11/13 07:53:55;;;;;;;2.58;1.30;;;;;;;;;;2076443;28;20390;-77
2023/11/13 07:55:14;;;;;;;1.33;1.20;;;;;;;;;;2076140;28;20096;-77
2023/11/13 07:56:33;;;;;;;5.18;1.45;;;;;;;;;;2073430;28;20030;-77